Time;durP1;ratioP1;P1;durP2;ratioP2;P2;SDS_P1;SDS_P2;PMS_P1;PMS_P2;Temp;Humidity;BMP_temperature;BMP_pressure;BME280_temperature;BME280_humidity;BME280_pressure;Samples;Min_cycle;Max_cycle;Signal;HPM_P1;HPM_P2
2022/10/01 00:00:46;;;;;;;7.38;6.22;;;;;;;13.53;100.00;99702.50;6367952;22;20374;-89
2022/10/01 00:03:11;;;;;;;7.25;5.28;;;;;;;13.53;100.00;99680.19;6312343;22;20006;-90
2022/10/01 00:05:37;;;;;;;7.88;5.35;;;;;;;13.54;100.00;99665.03;6312001;22;20021;-90
2022/10/01 00:08:03;;;;;;;5.60;5.00;;;;;;;13.55;100.00;99672.91;6338279;22;20021;-89
2022/10/01 00:10:30;;;;;;;5.57;4.30;;;;;;;13.60;100.00;99690.25;6338709;22;20428;-89
2022/10/01 00:12:55;;;;;;;7.57;4.40;;;;;;;13.52;100.00;99700.94;6366473;22;20014;-89
2022/10/01 00:15:21;;;;;;;5.95;4.50;;;;;;;13.47;100.00;99699.53;6340297;22;20441;-89
2022/10/01 00:17:47;;;;;;;5.15;4.65;;;;;;;13.49;100.00;99702.66;6311124;22;20006;-89
2022/10/01 00:20:13;;;;;;;5.38;4.85;;;;;;;13.45;100.00;99712.41;6338759;22;20056;-90
2022/10/01 00:22:39;;;;;;;7.40;6.13;;;;;;;13.37;100.00;99700.00;6312313;22;20015;-90
2022/10/01 00:25:05;;;;;;;7.82;6.32;;;;;;;13.38;100.00;99707.13;6312520;22;20029;-90
2022/10/01 00:27:30;;;;;;;6.47;5.65;;;;;;;13.42;100.00;99677.88;6287308;22;20356;-86
2022/10/01 00:29:56;;;;;;;6.93;5.88;;;;;;;13.44;100.00;99660.69;6338764;22;20014;-86
2022/10/01 00:32:22;;;;;;;7.13;6.22;;;;;;;13.49;100.00;99676.78;6311768;22;20018;-86
2022/10/01 00:34:48;;;;;;;7.68;6.22;;;;;;;13.50;100.00;99681.13;6338850;22;20463;-86
2022/10/01 00:37:14;;;;;;;8.15;6.43;;;;;;;13.50;100.00;99681.13;6337897;22;19998;-86
2022/10/01 00:39:40;;;;;;;6.05;5.45;;;;;;;13.51;100.00;99669.50;6286489;22;20091;-86
2022/10/01 00:42:23;;;;;;;6.78;5.88;;;;;;;13.53;100.00;99674.63;6313072;22;20010;-85
2022/10/01 00:44:50;;;;;;;6.95;6.07;;;;;;;13.58;100.00;99665.66;6311998;22;20011;-86
2022/10/01 00:47:21;;;;;;;7.03;5.30;;;;;;;13.60;100.00;99668.72;6311823;22;20010;-86
2022/10/01 00:49:49;;;;;;;6.50;5.50;;;;;;;13.59;100.00;99650.44;6367524;22;20099;-85
2022/10/01 00:52:21;;;;;;;7.65;5.40;;;;;;;13.58;100.00;99659.28;6314435;22;20412;-85
2022/10/01 00:54:57;;;;;;;9.38;5.68;;;;;;;13.57;100.00;99664.09;6340600;22;20011;-86
2022/10/01 00:57:25;;;;;;;6.60;5.93;;;;;;;13.58;100.00;99659.28;6286395;22;20046;-85
2022/10/01 00:59:53;;;;;;;7.38;6.10;;;;;;;13.61;100.00;99675.06;6312773;22;20484;-86
2022/10/01 01:02:19;;;;;;;8.60;6.78;;;;;;;13.60;100.00;99663.16;6252901;22;20495;-89
2022/10/01 01:04:44;;;;;;;7.30;6.57;;;;;;;13.59;100.00;99656.03;6250011;22;20462;-90
2022/10/01 01:07:10;;;;;;;8.45;7.35;;;;;;;13.53;100.00;99666.25;6250184;22;20417;-89
2022/10/01 01:09:40;;;;;;;8.55;7.60;;;;;;;13.53;100.00;99669.06;6277302;22;20436;-90
2022/10/01 01:12:36;;;;;;;8.40;7.13;;;;;;;13.59;100.00;99667.16;6275826;22;20027;-90
2022/10/01 01:15:13;;;;;;;8.07;6.88;;;;;;;13.61;100.00;99658.34;6276887;22;20019;-90
2022/10/01 01:18:09;;;;;;;7.45;6.65;;;;;;;13.63;100.00;99667.78;6250330;22;20106;-85
2022/10/01 01:20:50;;;;;;;7.70;6.90;;;;;;;13.61;100.00;99675.84;6188690;22;20375;-86
2022/10/01 01:23:15;;;;;;;7.75;6.85;;;;;;;13.61;100.00;99677.88;6266844;22;20023;-85
2022/10/01 01:25:46;;;;;;;9.75;7.50;;;;;;;13.64;100.00;99657.41;6304471;22;20385;-85
2022/10/01 01:28:21;;;;;;;8.57;7.00;;;;;;;13.63;100.00;99651.06;6276174;22;20015;-85
2022/10/01 01:30:49;;;;;;;9.65;6.72;;;;;;;13.64;100.00;99658.19;6252019;22;20025;-85
2022/10/01 01:33:17;;;;;;;8.73;6.22;;;;;;;13.67;100.00;99662.81;6249315;22;20026;-85
2022/10/01 01:35:52;;;;;;;6.18;5.07;;;;;;;13.72;100.00;99645.47;6224685;22;20516;-89
2022/10/01 01:38:27;;;;;;;6.75;5.88;;;;;;;13.67;100.00;99659.28;6251873;22;20395;-89
2022/10/01 01:40:55;;;;;;;7.80;6.03;;;;;;;13.66;100.00;99660.53;6250485;22;20321;-89
2022/10/01 01:43:28;;;;;;;7.28;4.70;;;;;;;13.63;100.00;99664.25;6276660;22;20019;-89
2022/10/01 01:45:54;;;;;;;5.55;3.83;;;;;;;13.63;100.00;99667.78;6277992;22;20046;-89
2022/10/01 01:48:21;;;;;;;6.28;3.63;;;;;;;13.65;100.00;99665.31;6275796;22;20011;-89
2022/10/01 01:50:51;;;;;;;4.95;2.88;;;;;;;13.64;100.00;99663.75;6251487;22;20003;-89
2022/10/01 01:53:18;;;;;;;4.60;3.08;;;;;;;13.56;100.00;99673.69;6277764;22;20015;-88
2022/10/01 01:55:44;;;;;;;3.67;2.17;;;;;;;13.53;100.00;99669.06;6276198;22;20011;-89
2022/10/01 01:58:10;;;;;;;3.70;2.08;;;;;;;13.58;100.00;99665.66;6227283;22;20045;-89
2022/10/01 02:00:36;;;;;;;2.42;1.75;;;;;;;13.61;100.00;99652.78;6277819;22;19999;-90
2022/10/01 02:03:02;;;;;;;3.15;1.92;;;;;;;13.60;100.00;99659.59;6226068;22;20356;-89
2022/10/01 02:05:47;;;;;;;2.15;1.45;;;;;;;13.63;100.00;99656.63;6226518;22;20097;-89
2022/10/01 02:08:36;;;;;;;2.03;1.30;;;;;;;13.59;100.00;99667.16;6241080;22;20011;-89
2022/10/01 02:11:22;;;;;;;0.75;0.75;;;;;;;13.57;100.00;99686.38;6250885;22;20451;-89
2022/10/01 02:14:19;;;;;;;1.88;1.35;;;;;;;13.55;100.00;99680.50;6252233;22;20019;-89
2022/10/01 02:16:56;;;;;;;1.45;1.27;;;;;;;13.59;100.00;99686.69;6278140;22;20013;-90
2022/10/01 02:19:43;;;;;;;1.80;1.25;;;;;;;13.57;100.00;99686.38;6279336;22;20003;-88
2022/10/01 02:22:17;;;;;;;2.35;2.15;;;;;;;13.51;100.00;99671.50;6280372;22;20007;-90
2022/10/01 02:24:46;;;;;;;4.25;0.95;;;;;;;13.50;100.00;99675.56;6252265;22;20012;-89
2022/10/01 02:27:16;;;;;;;4.20;2.20;;;;;;;13.47;100.00;99674.47;6276660;22;20011;-89
2022/10/01 02:29:42;;;;;;;1.35;1.17;;;;;;;13.51;100.00;99671.50;6251557;22;20015;-89
2022/10/01 02:32:08;;;;;;;13.15;1.25;;;;;;;13.54;100.00;99671.38;6249870;22;20019;-89
2022/10/01 02:34:34;;;;;;;2.35;1.50;;;;;;;13.57;100.00;99672.44;6277065;22;20188;-89
2022/10/01 02:37:02;;;;;;;0.70;0.70;;;;;;;13.57;100.00;99674.47;6277832;22;20078;-89
2022/10/01 02:39:28;;;;;;;0.68;0.68;;;;;;;13.53;100.00;99675.41;6250279;22;20011;-89
2022/10/01 02:41:54;;;;;;;0.82;0.82;;;;;;;13.60;100.00;99681.88;6250037;22;20096;-90
2022/10/01 02:44:25;;;;;;;1.15;1.00;;;;;;;13.59;100.00;99667.16;6226801;22;20004;-90
2022/10/01 02:46:59;;;;;;;1.17;1.08;;;;;;;13.63;100.00;99669.81;6275550;22;20015;-89
2022/10/01 02:49:25;;;;;;;1.02;0.95;;;;;;;13.54;100.00;99670.59;6251049;22;20039;-90
2022/10/01 02:51:52;;;;;;;1.83;1.27;;;;;;;13.60;100.00;99688.22;6276260;22;20066;-89
2022/10/01 02:54:23;;;;;;;0.80;0.80;;;;;;;13.59;100.00;99683.16;6303364;22;20004;-90
2022/10/01 02:59:33;;;;;;;1.17;1.08;;;;;;;13.55;100.00;99678.47;6280757;22;20444;-90
2022/10/01 03:01:59;;;;;;;0.40;0.40;;;;;;;13.62;100.00;99690.56;6249899;22;20019;-89
2022/10/01 03:04:24;;;;;;;0.98;0.35;;;;;;;13.65;100.00;99698.75;6250992;22;20015;-89
2022/10/01 03:06:50;;;;;;;0.70;0.70;;;;;;;13.64;100.00;99680.50;6249905;22;20073;-90
2022/10/01 03:09:15;;;;;;;0.73;0.68;;;;;;;13.68;100.00;99681.09;6224829;22;20016;-90
2022/10/01 03:11:41;;;;;;;2.05;1.35;;;;;;;13.69;100.00;99693.03;6275775;22;20017;-90
2022/10/01 03:14:08;;;;;;;0.35;0.35;;;;;;;13.68;100.00;99680.31;6277140;22;20452;-90
2022/10/01 03:16:33;;;;;;;0.35;0.35;;;;;;;13.69;100.00;99671.50;6277573;22;20014;-90
2022/10/01 03:18:59;;;;;;;0.43;0.30;;;;;;;13.74;100.00;99684.81;6250779;22;20035;-91
2022/10/01 03:21:25;;;;;;;0.98;0.98;;;;;;;13.74;100.00;99687.59;6276800;22;20141;-90
2022/10/01 03:23:50;;;;;;;0.93;0.85;;;;;;;13.75;100.00;99702.31;6301756;22;20094;-90
2022/10/01 03:26:15;;;;;;;0.68;0.57;;;;;;;13.74;100.00;99704.34;6278879;22;20515;-90
2022/10/01 03:28:41;;;;;;;0.32;0.32;;;;;;;13.77;100.00;99710.97;6253505;22;20106;-91
2022/10/01 03:31:08;;;;;;;0.20;0.15;;;;;;;13.75;100.00;99703.06;6280377;22;20011;-91
2022/10/01 03:33:34;;;;;;;0.40;0.40;;;;;;;13.79;100.00;99714.09;6281384;22;20035;-89
2022/10/01 03:36:01;;;;;;;0.00;0.00;;;;;;;13.83;100.00;99704.31;6278900;22;20017;-90
2022/10/01 03:38:27;;;;;;;0.82;0.63;;;;;;;13.80;100.00;99699.66;6308859;22;19999;-90
2022/10/01 03:40:53;;;;;;;0.55;0.55;;;;;;;13.77;100.00;99708.19;6308726;22;20047;-90
2022/10/01 03:43:19;;;;;;;0.32;0.32;;;;;;;13.79;100.00;99709.25;6281134;22;20023;-90
2022/10/01 03:45:44;;;;;;;0.90;0.65;;;;;;;13.78;100.00;99713.31;6255054;22;20141;-90
2022/10/01 03:48:09;;;;;;;0.93;0.82;;;;;;;13.77;100.00;99708.19;6252625;22;20092;-89
2022/10/01 03:50:35;;;;;;;0.22;0.22;;;;;;;13.79;100.00;99705.72;6282200;22;20031;-90
2022/10/01 03:53:01;;;;;;;0.30;0.30;;;;;;;13.76;100.00;99704.63;6279213;22;20010;-90
2022/10/01 03:55:27;;;;;;;1.05;1.00;;;;;;;13.75;100.00;99691.94;6258439;22;20012;-90
2022/10/01 03:57:52;;;;;;;0.80;0.43;;;;;;;13.79;100.00;99694.56;6254755;22;20065;-90
2022/10/01 04:00:18;;;;;;;4.15;1.42;;;;;;;13.75;100.00;99685.59;6280173;22;20004;-90
2022/10/01 04:02:43;;;;;;;0.47;0.47;;;;;;;13.73;100.00;99685.28;6280765;22;20043;-91
2022/10/01 04:05:09;;;;;;;0.98;0.55;;;;;;;13.73;100.00;99688.84;6279866;22;20018;-90
2022/10/01 04:07:35;;;;;;;0.65;0.65;;;;;;;13.75;100.00;99688.38;6280223;22;20011;-90
2022/10/01 04:10:00;;;;;;;0.80;0.80;;;;;;;13.73;100.00;99679.69;6278862;22;20087;-89
2022/10/01 04:12:26;;;;;;;0.88;0.57;;;;;;;13.73;100.00;99683.28;6279559;22;20387;-89
2022/10/01 04:14:51;;;;;;;1.23;1.13;;;;;;;13.79;100.00;99686.97;6307251;22;20007;-89
2022/10/01 04:17:17;;;;;;;3.00;1.70;;;;;;;13.78;100.00;99696.59;6253642;22;20119;-90
2022/10/01 04:19:42;;;;;;;0.98;0.73;;;;;;;13.75;100.00;99703.06;6252995;22;20018;-90
2022/10/01 04:22:08;;;;;;;1.95;0.65;;;;;;;13.78;100.00;99699.38;6252843;22;20045;-90
2022/10/01 04:24:33;;;;;;;1.75;1.00;;;;;;;13.75;100.00;99689.13;6306029;22;20003;-90
2022/10/01 04:26:59;;;;;;;0.93;0.50;;;;;;;13.75;100.00;99672.41;6252820;22;20018;-90
2022/10/01 04:29:24;;;;;;;1.45;1.33;;;;;;;13.78;100.00;99687.44;6278040;22;20496;-90
2022/10/01 04:31:49;;;;;;;0.32;0.30;;;;;;;13.79;100.00;99695.31;6277311;22;20015;-90
2022/10/01 04:34:15;;;;;;;1.00;0.90;;;;;;;13.82;100.00;99690.84;6250407;22;20030;-90
2022/10/01 04:36:40;;;;;;;1.23;1.08;;;;;;;13.81;100.00;99694.88;6226089;22;20031;-90
2022/10/01 04:39:07;;;;;;;1.55;0.95;;;;;;;13.77;100.00;99689.47;6251150;22;20007;-90
2022/10/01 04:41:32;;;;;;;1.42;0.88;;;;;;;13.76;100.00;99685.13;6277610;22;20007;-90
2022/10/01 04:43:58;;;;;;;1.00;0.90;;;;;;;13.76;100.00;99687.91;6252305;22;20441;-90
2022/10/01 04:46:24;;;;;;;3.00;2.55;;;;;;;13.74;100.00;99670.09;6276178;22;20014;-89
2022/10/01 04:48:49;;;;;;;1.70;1.45;;;;;;;13.74;100.00;99682.03;6252144;22;20011;-89
2022/10/01 04:51:16;;;;;;;0.68;0.68;;;;;;;13.74;100.00;99700.78;6277861;22;20015;-89
2022/10/01 04:53:42;;;;;;;1.50;0.98;;;;;;;13.74;100.00;99700.78;6277627;22;19999;-88
2022/10/01 04:56:07;;;;;;;1.58;1.48;;;;;;;13.77;100.00;99706.19;6278350;22;20012;-89
2022/10/01 04:58:33;;;;;;;1.00;1.00;;;;;;;13.79;100.00;99698.13;6252189;22;20072;-89
2022/10/01 05:00:58;;;;;;;1.20;1.00;;;;;;;13.75;100.00;99708.66;6277233;22;20023;-90
2022/10/01 05:03:24;;;;;;;1.17;1.08;;;;;;;13.75;100.00;99703.06;6270943;22;20012;-91
2022/10/01 05:05:49;;;;;;;2.45;1.80;;;;;;;13.81;100.00;99712.38;6250985;22;20486;-89
2022/10/01 05:08:15;;;;;;;0.77;0.77;;;;;;;13.81;100.00;99715.16;6277792;22;20011;-89
2022/10/01 05:10:41;;;;;;;0.30;0.30;;;;;;;13.87;100.00;99709.75;6252347;22;20631;-89
2022/10/01 05:13:06;;;;;;;0.60;0.40;;;;;;;13.86;100.00;99702.63;6276992;22;19999;-89
2022/10/01 05:15:32;;;;;;;0.82;0.82;;;;;;;13.86;100.00;99697.81;6252758;22;20057;-88
2022/10/01 05:17:58;;;;;;;0.22;0.22;;;;;;;13.88;100.00;99700.13;6253249;22;20322;-90
2022/10/01 05:20:26;;;;;;;0.10;0.10;;;;;;;13.88;100.00;99700.88;6278917;22;20062;-90
2022/10/01 05:22:52;;;;;;;0.95;0.88;;;;;;;13.86;100.00;99688.66;6275804;22;20011;-89
2022/10/01 05:25:18;;;;;;;1.13;0.90;;;;;;;13.89;100.00;99687.72;6277002;22;20014;-89
2022/10/01 05:27:44;;;;;;;0.93;0.73;;;;;;;13.89;100.00;99690.50;6252483;22;20047;-89
2022/10/01 05:30:11;;;;;;;2.05;1.63;;;;;;;13.90;100.00;99695.63;6278945;22;20011;-90
2022/10/01 05:32:37;;;;;;;0.98;0.98;;;;;;;13.87;100.00;99702.13;6251998;22;20023;-90
2022/10/01 05:35:04;;;;;;;0.32;0.32;;;;;;;13.90;100.00;99692.06;6250732;22;20342;-90
2022/10/01 05:37:29;;;;;;;1.63;1.40;;;;;;;13.90;100.00;99698.41;6251940;22;20018;-85
2022/10/01 05:39:55;;;;;;;4.32;1.27;;;;;;;13.95;100.00;99700.56;6304827;22;20089;-86
2022/10/01 05:42:20;;;;;;;1.15;0.52;;;;;;;13.97;100.00;99691.75;6275911;22;20072;-85
2022/10/01 05:44:46;;;;;;;0.98;0.75;;;;;;;13.93;100.00;99697.47;6251278;22;20015;-86
2022/10/01 05:47:15;;;;;;;0.73;0.73;;;;;;;13.95;100.00;99694.97;6251422;22;20007;-85
2022/10/01 05:49:43;;;;;;;2.33;2.13;;;;;;;13.96;100.00;99695.75;6276587;22;20036;-85
2022/10/01 05:52:13;;;;;;;2.15;1.08;;;;;;;13.96;100.00;99702.13;6304620;22;19999;-86
2022/10/01 05:54:38;;;;;;;2.13;1.75;;;;;;;13.90;100.00;99690.06;6251895;22;20007;-86
2022/10/01 05:57:05;;;;;;;1.10;0.90;;;;;;;13.95;100.00;99700.56;6276474;22;20066;-85
2022/10/01 05:59:30;;;;;;;1.38;1.27;;;;;;;13.91;100.00;99697.16;6251446;22;20011;-85
2022/10/01 06:01:56;;;;;;;0.60;0.60;;;;;;;13.93;100.00;99714.22;6276789;22;20157;-85
2022/10/01 06:04:21;;;;;;;0.85;0.77;;;;;;;13.98;100.00;99716.38;6224688;22;20534;-85
2022/10/01 06:06:47;;;;;;;1.17;1.10;;;;;;;13.98;100.00;99705.22;6249861;22;20118;-84
2022/10/01 06:09:12;;;;;;;2.33;1.75;;;;;;;13.97;100.00;99695.31;6301815;22;20062;-84
2022/10/01 06:11:38;;;;;;;1.15;1.05;;;;;;;13.91;100.00;99671.31;6252648;22;20007;-85
2022/10/01 06:14:05;;;;;;;0.55;0.55;;;;;;;13.89;100.00;99671.78;6275997;22;20008;-85
2022/10/01 06:16:30;;;;;;;0.40;0.40;;;;;;;13.96;100.00;99679.81;6277655;22;20083;-84
2022/10/01 06:18:56;;;;;;;2.35;1.23;;;;;;;13.90;100.00;99675.34;6253116;22;20044;-86
2022/10/01 06:21:23;;;;;;;2.03;1.48;;;;;;;13.95;100.00;99686.63;6275387;22;20003;-86
2022/10/01 06:23:49;;;;;;;1.20;1.10;;;;;;;13.86;100.00;99664.34;6223753;22;20068;-86
2022/10/01 06:26:16;;;;;;;1.20;1.10;;;;;;;13.95;100.00;99678.25;6249271;22;20066;-86
2022/10/01 06:28:41;;;;;;;1.40;1.15;;;;;;;13.95;100.00;99681.03;6275453;22;20015;-85
2022/10/01 06:31:07;;;;;;;0.93;0.88;;;;;;;13.97;100.00;99678.56;6274686;22;20014;-85
2022/10/01 06:33:32;;;;;;;0.80;0.60;;;;;;;14.00;100.00;99668.47;6250079;22;20086;-86
2022/10/01 06:35:58;;;;;;;1.42;1.33;;;;;;;13.97;100.00;99667.41;6275419;22;20207;-86
2022/10/01 06:38:24;;;;;;;1.70;1.17;;;;;;;14.04;100.00;99671.88;6272900;22;20019;-86
2022/10/01 06:40:56;;;;;;;0.38;0.38;;;;;;;14.03;100.00;99664.78;6250501;22;20030;-86
2022/10/01 06:43:22;;;;;;;0.90;0.90;;;;;;;14.11;100.00;99670.78;6275508;22;20069;-86
2022/10/01 06:45:48;;;;;;;0.93;0.82;;;;;;;14.16;100.00;99681.28;6249475;22;20086;-85
2022/10/01 06:48:18;;;;;;;2.20;1.00;;;;;;;14.17;100.00;99680.06;6250186;22;20110;-86
2022/10/01 06:50:45;;;;;;;2.30;1.60;;;;;;;14.21;100.00;99677.88;6249039;22;20018;-91
2022/10/01 06:53:14;;;;;;;3.38;2.15;;;;;;;14.22;100.00;99680.19;6250104;22;20015;-91
2022/10/01 06:55:40;;;;;;;1.33;1.23;;;;;;;14.26;100.00;99691.19;6276092;22;20110;-90
2022/10/01 06:58:17;;;;;;;1.42;0.95;;;;;;;14.26;100.00;99691.19;6251044;22;20504;-91
2022/10/01 07:00:43;;;;;;;0.68;0.68;;;;;;;14.38;100.00;99701.41;6252460;22;20016;-91
2022/10/01 07:03:13;;;;;;;1.90;1.75;;;;;;;14.43;100.00;99697.97;6278318;22;20076;-91
2022/10/01 07:05:39;;;;;;;2.70;1.95;;;;;;;14.49;100.00;99698.88;6253092;22;20057;-90
2022/10/01 07:08:05;;;;;;;1.88;1.48;;;;;;;14.49;100.00;99687.72;6278033;22;20003;-87
2022/10/01 07:10:31;;;;;;;1.48;1.38;;;;;;;14.55;100.00;99687.84;6252487;22;20035;-85
2022/10/01 07:13:08;;;;;;;1.50;1.25;;;;;;;14.57;100.00;99688.13;6278471;22;20420;-86
2022/10/01 07:15:34;;;;;;;0.52;0.52;;;;;;;14.52;100.00;99686.75;6253273;22;20007;-85
2022/10/01 07:18:00;;;;;;;0.57;0.57;;;;;;;14.47;100.00;99684.63;6277926;22;20033;-85
2022/10/01 07:20:26;;;;;;;1.70;1.58;;;;;;;14.54;100.00;99695.44;6251633;22;20011;-85
2022/10/01 07:22:58;;;;;;;1.27;1.17;;;;;;;14.53;100.00;99699.47;6252754;22;20018;-86
2022/10/01 07:25:24;;;;;;;0.82;0.60;;;;;;;14.58;100.00;99701.63;6252633;22;20065;-91
2022/10/01 07:27:58;;;;;;;0.63;0.57;;;;;;;14.58;100.00;99689.69;6251588;22;20482;-86
2022/10/01 07:30:24;;;;;;;1.77;0.93;;;;;;;14.63;100.00;99681.44;6252159;22;20471;-86
2022/10/01 07:32:50;;;;;;;0.68;0.68;;;;;;;14.68;100.00;99689.16;6251085;22;20337;-87
2022/10/01 07:35:16;;;;;;;1.38;1.27;;;;;;;14.74;100.00;99692.09;6252271;22;20011;-86
2022/10/01 07:37:42;;;;;;;1.05;0.98;;;;;;;14.71;100.00;99688.22;6276183;22;20388;-86
2022/10/01 07:40:08;;;;;;;1.00;0.55;;;;;;;14.83;100.00;99700.41;6275755;22;20015;-87
2022/10/01 07:42:34;;;;;;;1.33;1.23;;;;;;;14.99;100.00;99699.22;6277621;22;20078;-86
2022/10/01 07:45:02;;;;;;;1.42;1.33;;;;;;;15.09;100.00;99695.88;6277765;22;20035;-86
2022/10/01 07:47:27;;;;;;;3.97;1.58;;;;;;;15.06;100.00;99676.53;6278580;22;20132;-86
2022/10/01 07:49:53;;;;;;;0.40;0.40;;;;;;;15.11;100.00;99675.88;6249469;22;20415;-87
2022/10/01 07:52:18;;;;;;;0.73;0.45;;;;;;;15.21;100.00;99680.13;6252033;22;20011;-87
2022/10/01 07:54:44;;;;;;;0.65;0.65;;;;;;;15.27;100.00;99684.59;6277344;22;20516;-88
2022/10/01 07:57:09;;;;;;;0.52;0.52;;;;;;;15.40;100.00;99681.56;6278320;22;20451;-86
2022/10/01 07:59:34;;;;;;;1.30;1.20;;;;;;;15.38;100.00;99675.66;6304570;22;20081;-87
2022/10/01 08:02:00;;;;;;;0.60;0.60;;;;;;;15.43;100.00;99674.22;6277388;22;20074;-86
2022/10/01 08:07:10;;;;;;;0.38;0.35;;;;;;;15.44;100.00;99670.97;6305497;22;20007;-88
2022/10/01 08:09:38;;;;;;;0.65;0.65;;;;;;;15.53;100.00;99679.28;6227139;22;20034;-86
2022/10/01 08:12:04;;;;;;;1.00;0.98;;;;;;;15.54;100.00;99669.63;6278231;22;20003;-84
2022/10/01 08:14:30;;;;;;;1.85;1.13;;;;;;;15.58;100.00;99675.03;6252460;22;20077;-85
2022/10/01 08:16:56;;;;;;;2.05;1.58;;;;;;;15.56;100.00;99669.16;6227012;22;20046;-85
2022/10/01 08:19:21;;;;;;;0.43;0.43;;;;;;;15.46;100.00;99668.44;6248935;22;20019;-86
2022/10/01 08:21:47;;;;;;;0.75;0.73;;;;;;;15.48;100.00;99671.53;6252669;22;20015;-86
2022/10/01 08:24:12;;;;;;;1.08;0.82;;;;;;;15.54;100.00;99669.63;6252327;22;20684;-87
2022/10/01 08:26:38;;;;;;;0.45;0.30;;;;;;;15.58;100.00;99670.22;6278258;22;20460;-86
2022/10/01 08:29:04;;;;;;;0.55;0.52;;;;;;;15.60;100.00;99676.13;6277001;22;20007;-86
2022/10/01 08:31:29;;;;;;;0.20;0.20;;;;;;;15.65;100.00;99677.47;6252766;22;20015;-85
2022/10/01 08:33:55;;;;;;;0.75;0.40;;;;;;;15.59;100.00;99673.78;6250962;22;20029;-87
2022/10/01 08:36:21;;;;;;;0.38;0.38;;;;;;;15.53;100.00;99676.47;6226779;22;20019;-87
2022/10/01 08:38:47;;;;;;;0.80;0.55;;;;;;;15.59;100.00;99688.56;6277034;22;20018;-90
2022/10/01 08:41:44;;;;;;;0.70;0.70;;;;;;;15.49;100.00;99684.25;6280899;22;20019;-86
2022/10/01 08:44:17;;;;;;;11.40;0.80;;;;;;;15.54;100.00;99686.41;6274102;22;20138;-87
2022/10/01 08:46:44;;;;;;;0.80;0.52;;;;;;;15.62;100.00;99682.00;6273412;22;20022;-86
2022/10/01 08:49:41;;;;;;;0.80;0.80;;;;;;;15.80;100.00;99687.44;6245643;22;20015;-86
2022/10/01 08:52:15;;;;;;;1.10;0.52;;;;;;;15.89;100.00;99683.78;6238154;22;20081;-86
2022/10/01 08:54:53;;;;;;;0.28;0.28;;;;;;;15.90;100.00;99690.88;6275466;22;20157;-85
2022/10/01 08:57:23;;;;;;;1.33;0.95;;;;;;;15.93;100.00;99695.53;6250676;22;20015;-86
2022/10/01 08:59:52;;;;;;;0.90;0.82;;;;;;;16.05;100.00;99693.69;6250402;22;20442;-90
2022/10/01 09:02:20;;;;;;;1.02;0.90;;;;;;;16.22;100.00;99695.50;6275861;22;20011;-91
2022/10/01 09:04:47;;;;;;;0.30;0.30;;;;;;;16.32;100.00;99696.19;6275612;22;20256;-90
2022/10/01 09:07:27;;;;;;;0.32;0.32;;;;;;;16.39;100.00;99692.97;6250830;22;20474;-91
2022/10/01 09:10:03;;;;;;;0.47;0.47;;;;;;;16.32;100.00;99685.75;6276547;22;20050;-90
2022/10/01 09:12:49;;;;;;;0.45;0.43;;;;;;;16.53;100.00;99697.03;6278292;22;20489;-92
2022/10/01 09:15:35;;;;;;;0.60;0.60;;;;;;;16.47;100.00;99685.72;6276397;22;20073;-91
2022/10/01 09:18:09;;;;;;;0.43;0.35;;;;;;;16.65;100.00;99688.34;6273642;22;20026;-91
2022/10/01 09:20:38;;;;;;;0.17;0.17;;;;;;;16.67;100.00;99666.19;6277343;22;20015;-90
2022/10/01 09:23:25;;;;;;;1.77;1.05;;;;;;;16.79;100.00;99684.69;6249617;22;20073;-90
2022/10/01 09:25:51;;;;;;;0.85;0.80;;;;;;;16.93;100.00;99685.91;6277664;22;20014;-89
2022/10/01 09:28:27;;;;;;;0.40;0.40;;;;;;;17.13;100.00;99673.94;6249545;22;20011;-89
2022/10/01 09:31:13;;;;;;;0.65;0.65;;;;;;;17.34;100.00;99661.47;6276265;22;20022;-89
2022/10/01 09:33:47;;;;;;;0.57;0.28;;;;;;;17.81;100.00;99673.44;6251886;22;20015;-90
2022/10/01 09:36:22;;;;;;;0.63;0.57;;;;;;;18.08;100.00;99670.13;6226629;22;20019;-89
2022/10/01 09:38:58;;;;;;;2.10;0.80;;;;;;;18.08;100.00;99664.50;6276596;22;20062;-90
2022/10/01 09:41:24;;;;;;;0.22;0.22;;;;;;;18.07;100.00;99660.19;6250177;22;20062;-89
2022/10/01 09:43:49;;;;;;;0.32;0.30;;;;;;;18.10;100.00;99665.56;6249505;22;20425;-89
2022/10/01 09:46:16;;;;;;;1.17;0.77;;;;;;;18.04;100.00;99652.75;6250433;22;20015;-89
2022/10/01 09:49:03;;;;;;;0.45;0.40;;;;;;;17.96;100.00;99657.25;6250543;22;20027;-89
2022/10/01 09:51:35;;;;;;;1.08;0.70;;;;;;;17.87;100.00;99655.41;6251244;22;20587;-89
2022/10/01 09:54:16;;;;;;;0.57;0.57;;;;;;;18.05;100.00;99657.09;6276468;22;20038;-92
2022/10/01 09:56:46;;;;;;;0.20;0.20;;;;;;;18.19;100.00;99647.78;6226402;22;20334;-92
2022/10/01 09:59:35;;;;;;;0.45;0.45;;;;;;;18.12;100.00;99637.75;6252438;22;20079;-93
2022/10/01 10:02:03;;;;;;;0.38;0.20;;;;;;;18.41;100.00;99636.69;6277830;22;20017;-93
2022/10/01 10:04:28;;;;;;;0.28;0.28;;;;;;;18.26;100.00;99636.09;6276856;22;20011;-93
2022/10/01 10:06:59;;;;;;;0.73;0.73;;;;;;;18.43;100.00;99633.41;6277280;22;20429;-91
2022/10/01 10:09:29;;;;;;;0.43;0.38;;;;;;;18.52;100.00;99628.38;6277666;22;20008;-92
2022/10/01 10:11:56;;;;;;;0.40;0.40;;;;;;;18.56;100.00;99631.72;6252495;22;20022;-88
2022/10/01 10:14:31;;;;;;;0.98;0.85;;;;;;;18.82;100.00;99606.31;6251934;22;20000;-89
2022/10/01 10:16:57;;;;;;;0.85;0.85;;;;;;;18.98;100.00;99599.22;6276006;22;20944;-89
2022/10/01 10:19:25;;;;;;;0.25;0.20;;;;;;;18.92;100.00;99613.28;6226453;22;20066;-89
2022/10/01 10:21:54;;;;;;;2.72;1.73;;;;;;;18.97;100.00;99606.88;6251968;22;20026;-89
2022/10/01 10:24:32;;;;;;;0.20;0.10;;;;;;;19.15;100.00;99590.84;6277550;22;20014;-89
2022/10/01 10:26:59;;;;;;;0.50;0.40;;;;;;;19.64;100.00;99593.03;6226672;22;20090;-89
2022/10/01 10:29:33;;;;;;;0.30;0.30;;;;;;;20.05;100.00;99586.91;6251710;22;20356;-89
2022/10/01 10:32:03;;;;;;;0.95;0.63;;;;;;;20.31;100.00;99593.03;6251364;22;20011;-94
2022/10/01 10:34:37;;;;;;;0.63;0.45;;;;;;;20.20;100.00;99585.34;6278309;22;20019;-93
2022/10/01 10:37:06;;;;;;;0.40;0.40;;;;;;;20.39;100.00;99592.00;6229175;22;20038;-94
2022/10/01 10:39:35;;;;;;;0.10;0.10;;;;;;;20.03;100.00;99598.66;6253929;22;20011;-91
2022/10/01 10:42:02;;;;;;;0.30;0.30;;;;;;;20.09;100.00;99588.19;6253969;22;20018;-94
2022/10/01 10:44:35;;;;;;;0.60;0.60;;;;;;;20.24;100.00;99597.13;6253339;22;20389;-93
2022/10/01 10:47:04;;;;;;;0.00;0.00;;;;;;;20.37;100.00;99580.50;6228371;22;20491;-93
2022/10/01 10:49:31;;;;;;;0.03;0.03;;;;;;;20.59;100.00;99573.25;6228621;22;20003;-89
2022/10/01 10:51:59;;;;;;;0.20;0.20;;;;;;;20.37;100.00;99574.09;6253616;22;20072;-88
2022/10/01 10:54:38;;;;;;;0.20;0.20;;;;;;;20.28;100.00;99575.09;6228605;22;20018;-89
2022/10/01 10:57:26;;;;;;;0.20;0.20;;;;;;;20.30;100.00;99575.34;6254615;22;20082;-88
2022/10/01 11:00:18;;;;;;;1.00;0.90;;;;;;;20.27;100.00;99570.72;6278250;22;20042;-89
2022/10/01 11:02:49;;;;;;;0.10;0.10;;;;;;;20.06;100.00;99569.47;6279297;22;20022;-88
2022/10/01 11:05:20;;;;;;;0.43;0.40;;;;;;;20.30;100.00;99572.53;6253376;22;20326;-88
2022/10/01 11:07:47;;;;;;;0.03;0.03;;;;;;;20.09;100.00;99560.03;6254041;22;20015;-88
2022/10/01 11:10:27;;;;;;;1.52;1.30;;;;;;;20.02;100.00;99560.53;6227876;22;20023;-88
2022/10/01 11:13:17;;;;;;;0.15;0.15;;;;;;;19.85;100.00;99556.97;6278978;22;20532;-89
2022/10/01 11:15:46;;;;;;;0.20;0.20;;;;;;;19.85;100.00;99556.97;6278359;22;20356;-88
2022/10/01 11:18:32;;;;;;;0.08;0.08;;;;;;;19.80;100.00;99552.09;6279908;22;20019;-88
2022/10/01 11:21:09;;;;;;;0.10;0.10;;;;;;;20.09;100.00;99545.94;6252375;22;20022;-90
2022/10/01 11:23:44;;;;;;;0.43;0.43;;;;;;;20.66;100.00;99555.81;6277235;22;20090;-89
2022/10/01 11:26:12;;;;;;;0.28;0.28;;;;;;;20.88;100.00;99547.25;6278056;22;20449;-89
2022/10/01 11:29:13;;;;;;;0.43;0.35;;;;;;;20.93;100.00;99535.19;6304918;22;20345;-90
2022/10/01 11:32:18;;;;;;;0.43;0.40;;;;;;;20.83;100.00;99545.22;6278248;22;20594;-90
2022/10/01 11:35:14;;;;;;;0.50;0.38;;;;;;;20.11;100.00;99548.22;6258939;22;20026;-89
2022/10/01 11:37:52;;;;;;;0.38;0.30;;;;;;;19.99;100.00;99534.19;6277610;22;20019;-89
2022/10/01 11:40:27;;;;;;;0.50;0.50;;;;;;;20.13;100.00;99532.38;6251717;22;20022;-89